sensor_id;sensor_type;location;lat;lon;timestamp;temperature;humidity
75368;DHT22;63954;51.948;5.888;2022-10-16T00:01:27;12.81;79.30
75368;DHT22;63954;51.948;5.888;2022-10-16T00:03:56;12.78;79.43
75368;DHT22;63954;51.948;5.888;2022-10-16T00:06:27;12.77;79.37
75368;DHT22;63954;51.948;5.888;2022-10-16T00:08:57;12.73;79.59
75368;DHT22;63954;51.948;5.888;2022-10-16T00:11:26;12.70;79.79
75368;DHT22;63954;51.948;5.888;2022-10-16T00:13:59;12.67;79.98
75368;DHT22;63954;51.948;5.888;2022-10-16T00:16:30;12.66;80.27
75368;DHT22;63954;51.948;5.888;2022-10-16T00:18:58;12.66;80.24
75368;DHT22;63954;51.948;5.888;2022-10-16T00:21:27;12.63;80.38
75368;DHT22;63954;51.948;5.888;2022-10-16T00:23:56;12.62;80.52
75368;DHT22;63954;51.948;5.888;2022-10-16T00:26:29;12.59;80.66
75368;DHT22;63954;51.948;5.888;2022-10-16T00:28:58;12.58;80.94
75368;DHT22;63954;51.948;5.888;2022-10-16T00:31:26;12.58;80.94
75368;DHT22;63954;51.948;5.888;2022-10-16T00:33:59;12.56;81.20
75368;DHT22;63954;51.948;5.888;2022-10-16T00:36:29;12.55;81.02
75368;DHT22;63954;51.948;5.888;2022-10-16T00:38:57;12.52;81.17
75368;DHT22;63954;51.948;5.888;2022-10-16T00:41:27;12.50;81.51
75368;DHT22;63954;51.948;5.888;2022-10-16T00:43:56;12.52;81.30
75368;DHT22;63954;51.948;5.888;2022-10-16T00:46:29;12.49;81.42
75368;DHT22;63954;51.948;5.888;2022-10-16T00:49:00;12.48;81.62
75368;DHT22;63954;51.948;5.888;2022-10-16T00:51:32;12.46;81.64
75368;DHT22;63954;51.948;5.888;2022-10-16T00:54:01;12.46;81.81
75368;DHT22;63954;51.948;5.888;2022-10-16T00:56:32;12.44;81.72
75368;DHT22;63954;51.948;5.888;2022-10-16T00:59:01;12.42;81.94
75368;DHT22;63954;51.948;5.888;2022-10-16T01:01:33;12.41;81.98
75368;DHT22;63954;51.948;5.888;2022-10-16T01:04:00;12.38;82.06
75368;DHT22;63954;51.948;5.888;2022-10-16T01:06:34;12.37;82.71
75368;DHT22;63954;51.948;5.888;2022-10-16T01:09:17;12.40;82.50
75368;DHT22;63954;51.948;5.888;2022-10-16T01:11:54;12.42;82.18
75368;DHT22;63954;51.948;5.888;2022-10-16T01:14:32;12.40;82.54
75368;DHT22;63954;51.948;5.888;2022-10-16T01:17:11;12.37;82.46
75368;DHT22;63954;51.948;5.888;2022-10-16T01:19:56;12.38;82.56
75368;DHT22;63954;51.948;5.888;2022-10-16T01:22:38;12.41;82.83
75368;DHT22;63954;51.948;5.888;2022-10-16T01:25:13;12.38;82.61
75368;DHT22;63954;51.948;5.888;2022-10-16T01:27:45;12.38;82.67
75368;DHT22;63954;51.948;5.888;2022-10-16T01:30:20;12.37;82.81
75368;DHT22;63954;51.948;5.888;2022-10-16T01:32:50;12.37;82.72
75368;DHT22;63954;51.948;5.888;2022-10-16T01:35:23;12.37;82.82
75368;DHT22;63954;51.948;5.888;2022-10-16T01:37:55;12.43;82.95
75368;DHT22;63954;51.948;5.888;2022-10-16T01:40:26;12.44;82.84
75368;DHT22;63954;51.948;5.888;2022-10-16T01:42:59;12.48;82.63
75368;DHT22;63954;51.948;5.888;2022-10-16T01:45:28;12.51;82.78
75368;DHT22;63954;51.948;5.888;2022-10-16T01:47:58;12.56;82.56
75368;DHT22;63954;51.948;5.888;2022-10-16T01:50:31;12.59;82.64
75368;DHT22;63954;51.948;5.888;2022-10-16T01:53:02;12.69;82.57
75368;DHT22;63954;51.948;5.888;2022-10-16T01:55:33;12.77;82.33
75368;DHT22;63954;51.948;5.888;2022-10-16T01:58:08;12.86;82.10
75368;DHT22;63954;51.948;5.888;2022-10-16T02:00:38;12.92;81.87
75368;DHT22;63954;51.948;5.888;2022-10-16T02:03:07;12.93;81.68
75368;DHT22;63954;51.948;5.888;2022-10-16T02:05:37;12.88;82.03
75368;DHT22;63954;51.948;5.888;2022-10-16T02:08:07;12.90;81.67
75368;DHT22;63954;51.948;5.888;2022-10-16T02:10:35;12.88;81.81
75368;DHT22;63954;51.948;5.888;2022-10-16T02:13:07;12.86;81.79
75368;DHT22;63954;51.948;5.888;2022-10-16T02:15:35;12.91;81.94
75368;DHT22;63954;51.948;5.888;2022-10-16T02:18:03;12.97;81.91
75368;DHT22;63954;51.948;5.888;2022-10-16T02:23:20;13.15;81.44
75368;DHT22;63954;51.948;5.888;2022-10-16T02:25:52;13.19;81.25
75368;DHT22;63954;51.948;5.888;2022-10-16T02:28:26;13.21;81.10
75368;DHT22;63954;51.948;5.888;2022-10-16T02:30:57;13.21;81.14
75368;DHT22;63954;51.948;5.888;2022-10-16T02:33:26;13.21;81.06
75368;DHT22;63954;51.948;5.888;2022-10-16T02:35:58;13.19;81.08
75368;DHT22;63954;51.948;5.888;2022-10-16T02:38:27;13.20;81.09
75368;DHT22;63954;51.948;5.888;2022-10-16T02:40:56;13.16;81.10
75368;DHT22;63954;51.948;5.888;2022-10-16T02:43:28;13.11;81.17
75368;DHT22;63954;51.948;5.888;2022-10-16T02:45:55;13.10;81.22
75368;DHT22;63954;51.948;5.888;2022-10-16T02:48:22;13.05;81.25
75368;DHT22;63954;51.948;5.888;2022-10-16T02:50:51;13.01;81.42
75368;DHT22;63954;51.948;5.888;2022-10-16T02:53:18;12.97;81.48
75368;DHT22;63954;51.948;5.888;2022-10-16T02:55:50;12.93;81.58
75368;DHT22;63954;51.948;5.888;2022-10-16T02:58:17;12.87;81.78
75368;DHT22;63954;51.948;5.888;2022-10-16T03:00:49;12.80;81.97
75368;DHT22;63954;51.948;5.888;2022-10-16T03:03:16;12.77;82.07
75368;DHT22;63954;51.948;5.888;2022-10-16T03:05:43;12.75;82.12
75368;DHT22;63954;51.948;5.888;2022-10-16T03:08:14;12.75;82.39
75368;DHT22;63954;51.948;5.888;2022-10-16T03:10:41;12.79;82.40
75368;DHT22;63954;51.948;5.888;2022-10-16T03:13:08;12.87;82.17
75368;DHT22;63954;51.948;5.888;2022-10-16T03:15:39;12.91;81.92
75368;DHT22;63954;51.948;5.888;2022-10-16T03:18:08;12.91;81.73
75368;DHT22;63954;51.948;5.888;2022-10-16T03:20:37;12.85;81.86
75368;DHT22;63954;51.948;5.888;2022-10-16T03:23:04;12.81;81.94
75368;DHT22;63954;51.948;5.888;2022-10-16T03:25:34;12.78;81.97
75368;DHT22;63954;51.948;5.888;2022-10-16T03:28:04;12.76;82.07
75368;DHT22;63954;51.948;5.888;2022-10-16T03:30:33;12.78;82.23
75368;DHT22;63954;51.948;5.888;2022-10-16T03:33:03;12.79;82.20
75368;DHT22;63954;51.948;5.888;2022-10-16T03:35:32;12.81;82.16
75368;DHT22;63954;51.948;5.888;2022-10-16T03:37:59;12.86;82.00
75368;DHT22;63954;51.948;5.888;2022-10-16T03:40:27;12.89;82.06
75368;DHT22;63954;51.948;5.888;2022-10-16T03:42:57;12.90;81.91
75368;DHT22;63954;51.948;5.888;2022-10-16T03:45:27;12.88;81.91
75368;DHT22;63954;51.948;5.888;2022-10-16T03:47:57;12.88;81.89
75368;DHT22;63954;51.948;5.888;2022-10-16T03:50:24;12.86;81.89
75368;DHT22;63954;51.948;5.888;2022-10-16T03:52:55;12.84;81.94
75368;DHT22;63954;51.948;5.888;2022-10-16T03:55:22;12.82;81.97
75368;DHT22;63954;51.948;5.888;2022-10-16T03:57:49;12.84;81.91
75368;DHT22;63954;51.948;5.888;2022-10-16T04:00:19;12.79;81.95
75368;DHT22;63954;51.948;5.888;2022-10-16T04:02:47;12.78;81.97
75368;DHT22;63954;51.948;5.888;2022-10-16T04:05:17;12.76;82.05
75368;DHT22;63954;51.948;5.888;2022-10-16T04:07:48;12.77;82.14
75368;DHT22;63954;51.948;5.888;2022-10-16T04:10:17;12.79;82.17
75368;DHT22;63954;51.948;5.888;2022-10-16T04:12:45;12.84;82.13
75368;DHT22;63954;51.948;5.888;2022-10-16T04:15:12;12.91;82.06
75368;DHT22;63954;51.948;5.888;2022-10-16T04:17:39;12.99;81.84
75368;DHT22;63954;51.948;5.888;2022-10-16T04:20:09;13.05;81.73
75368;DHT22;63954;51.948;5.888;2022-10-16T04:22:38;13.11;81.46
75368;DHT22;63954;51.948;5.888;2022-10-16T04:25:09;13.17;81.25
75368;DHT22;63954;51.948;5.888;2022-10-16T04:27:41;13.19;81.01
75368;DHT22;63954;51.948;5.888;2022-10-16T04:30:10;13.18;81.02
75368;DHT22;63954;51.948;5.888;2022-10-16T04:32:42;13.16;81.03
75368;DHT22;63954;51.948;5.888;2022-10-16T04:35:11;13.16;81.09
75368;DHT22;63954;51.948;5.888;2022-10-16T04:37:38;13.14;81.22
75368;DHT22;63954;51.948;5.888;2022-10-16T04:40:07;13.14;81.12
75368;DHT22;63954;51.948;5.888;2022-10-16T04:42:46;13.11;81.27
75368;DHT22;63954;51.948;5.888;2022-10-16T04:45:19;13.09;81.23
75368;DHT22;63954;51.948;5.888;2022-10-16T04:48:01;13.04;81.23
75368;DHT22;63954;51.948;5.888;2022-10-16T04:50:28;12.99;81.47
75368;DHT22;63954;51.948;5.888;2022-10-16T04:53:07;12.93;81.55
75368;DHT22;63954;51.948;5.888;2022-10-16T04:55:38;12.87;81.67
75368;DHT22;63954;51.948;5.888;2022-10-16T05:33:30;12.34;82.86
75368;DHT22;63954;51.948;5.888;2022-10-16T05:36:01;12.32;82.94
75368;DHT22;63954;51.948;5.888;2022-10-16T05:38:30;12.28;83.12
75368;DHT22;63954;51.948;5.888;2022-10-16T05:40:57;12.22;83.32
75368;DHT22;63954;51.948;5.888;2022-10-16T05:43:48;12.20;83.29
75368;DHT22;63954;51.948;5.888;2022-10-16T05:46:23;12.19;83.49
75368;DHT22;63954;51.948;5.888;2022-10-16T05:48:58;12.17;83.99
75368;DHT22;63954;51.948;5.888;2022-10-16T05:52:17;12.18;83.32
75368;DHT22;63954;51.948;5.888;2022-10-16T05:54:45;12.18;83.34
75368;DHT22;63954;51.948;5.888;2022-10-16T05:57:17;12.15;83.49
75368;DHT22;63954;51.948;5.888;2022-10-16T06:00:05;12.12;83.80
75368;DHT22;63954;51.948;5.888;2022-10-16T06:02:51;12.12;83.84
75368;DHT22;63954;51.948;5.888;2022-10-16T06:05:23;12.11;83.86
75368;DHT22;63954;51.948;5.888;2022-10-16T06:07:51;12.10;83.99
75368;DHT22;63954;51.948;5.888;2022-10-16T06:10:20;12.12;83.87
75368;DHT22;63954;51.948;5.888;2022-10-16T06:16:43;12.06;83.87
75368;DHT22;63954;51.948;5.888;2022-10-16T06:19:18;12.07;84.04
75368;DHT22;63954;51.948;5.888;2022-10-16T06:21:47;12.14;84.10
75368;DHT22;63954;51.948;5.888;2022-10-16T06:24:22;12.25;84.13
75368;DHT22;63954;51.948;5.888;2022-10-16T06:27:05;12.37;83.94
75368;DHT22;63954;51.948;5.888;2022-10-16T06:29:45;12.49;83.67
75368;DHT22;63954;51.948;5.888;2022-10-16T06:32:15;12.60;83.41
75368;DHT22;63954;51.948;5.888;2022-10-16T06:34:43;12.69;83.39
75368;DHT22;63954;51.948;5.888;2022-10-16T06:39:58;12.90;82.80
75368;DHT22;63954;51.948;5.888;2022-10-16T06:42:26;13.01;82.69
75368;DHT22;63954;51.948;5.888;2022-10-16T06:44:53;13.11;82.34
75368;DHT22;63954;51.948;5.888;2022-10-16T06:47:25;13.22;82.07
75368;DHT22;63954;51.948;5.888;2022-10-16T06:49:53;13.34;81.85
75368;DHT22;63954;51.948;5.888;2022-10-16T06:52:22;13.44;81.57
75368;DHT22;63954;51.948;5.888;2022-10-16T06:54:54;13.54;81.27
75368;DHT22;63954;51.948;5.888;2022-10-16T07:05:12;13.84;80.32
75368;DHT22;63954;51.948;5.888;2022-10-16T07:08:02;13.86;80.11
75368;DHT22;63954;51.948;5.888;2022-10-16T07:11:10;13.90;79.95
75368;DHT22;63954;51.948;5.888;2022-10-16T07:13:40;13.96;79.96
75368;DHT22;63954;51.948;5.888;2022-10-16T07:16:09;14.01;79.89
75368;DHT22;63954;51.948;5.888;2022-10-16T07:18:37;14.06;79.68
75368;DHT22;63954;51.948;5.888;2022-10-16T07:21:09;14.10;79.57
75368;DHT22;63954;51.948;5.888;2022-10-16T07:23:58;14.18;79.27
75368;DHT22;63954;51.948;5.888;2022-10-16T07:26:40;14.25;79.11
75368;DHT22;63954;51.948;5.888;2022-10-16T07:29:22;14.34;78.82
75368;DHT22;63954;51.948;5.888;2022-10-16T07:33:02;14.37;78.45
75368;DHT22;63954;51.948;5.888;2022-10-16T07:36:05;14.39;78.43
75368;DHT22;63954;51.948;5.888;2022-10-16T07:38:38;14.51;78.48
75368;DHT22;63954;51.948;5.888;2022-10-16T07:44:40;14.89;77.21
75368;DHT22;63954;51.948;5.888;2022-10-16T07:47:09;14.98;76.92
75368;DHT22;63954;51.948;5.888;2022-10-16T07:49:36;14.95;76.82
75368;DHT22;63954;51.948;5.888;2022-10-16T07:52:03;14.95;77.09
75368;DHT22;63954;51.948;5.888;2022-10-16T07:54:31;15.08;77.08
75368;DHT22;63954;51.948;5.888;2022-10-16T07:57:09;15.24;76.04
75368;DHT22;63954;51.948;5.888;2022-10-16T07:59:59;15.37;75.51
75368;DHT22;63954;51.948;5.888;2022-10-16T08:02:40;15.39;75.36
75368;DHT22;63954;51.948;5.888;2022-10-16T08:05:08;15.44;75.42
75368;DHT22;63954;51.948;5.888;2022-10-16T08:07:37;15.48;75.44
75368;DHT22;63954;51.948;5.888;2022-10-16T08:10:05;15.58;75.50
75368;DHT22;63954;51.948;5.888;2022-10-16T08:12:32;15.73;75.33
75368;DHT22;63954;51.948;5.888;2022-10-16T08:15:06;15.83;74.72
75368;DHT22;63954;51.948;5.888;2022-10-16T08:17:38;15.84;74.59
75368;DHT22;63954;51.948;5.888;2022-10-16T08:20:09;15.83;74.45
75368;DHT22;63954;51.948;5.888;2022-10-16T08:22:40;15.81;74.41
75368;DHT22;63954;51.948;5.888;2022-10-16T08:25:08;15.86;74.08
75368;DHT22;63954;51.948;5.888;2022-10-16T08:27:35;16.00;74.11
75368;DHT22;63954;51.948;5.888;2022-10-16T08:30:05;16.17;73.47
75368;DHT22;63954;51.948;5.888;2022-10-16T08:32:32;16.17;73.27
75368;DHT22;63954;51.948;5.888;2022-10-16T08:35:00;16.10;73.48
75368;DHT22;63954;51.948;5.888;2022-10-16T08:37:31;16.24;73.16
75368;DHT22;63954;51.948;5.888;2022-10-16T08:46:40;15.98;73.47
75368;DHT22;63954;51.948;5.888;2022-10-16T08:49:11;16.04;73.09
75368;DHT22;63954;51.948;5.888;2022-10-16T08:51:57;15.99;73.21
75368;DHT22;63954;51.948;5.888;2022-10-16T09:05:31;15.99;72.29
75368;DHT22;63954;51.948;5.888;2022-10-16T09:08:11;15.97;72.58
75368;DHT22;63954;51.948;5.888;2022-10-16T09:14:15;16.02;72.64
75368;DHT22;63954;51.948;5.888;2022-10-16T09:17:11;16.05;72.16
75368;DHT22;63954;51.948;5.888;2022-10-16T09:20:18;16.15;71.68
75368;DHT22;63954;51.948;5.888;2022-10-16T09:23:12;16.28;72.11
75368;DHT22;63954;51.948;5.888;2022-10-16T09:25:42;16.35;72.06
75368;DHT22;63954;51.948;5.888;2022-10-16T09:28:34;16.43;71.78
75368;DHT22;63954;51.948;5.888;2022-10-16T09:31:36;16.47;70.58
75368;DHT22;63954;51.948;5.888;2022-10-16T09:37:59;16.48;71.45
75368;DHT22;63954;51.948;5.888;2022-10-16T09:40:26;16.45;70.74
75368;DHT22;63954;51.948;5.888;2022-10-16T09:46:04;16.49;70.44
75368;DHT22;63954;51.948;5.888;2022-10-16T09:48:47;16.49;71.00
75368;DHT22;63954;51.948;5.888;2022-10-16T09:51:47;16.49;70.59
75368;DHT22;63954;51.948;5.888;2022-10-16T09:55:22;16.54;70.60
75368;DHT22;63954;51.948;5.888;2022-10-16T09:58:13;16.63;70.99
75368;DHT22;63954;51.948;5.888;2022-10-16T10:01:54;16.72;70.86
75368;DHT22;63954;51.948;5.888;2022-10-16T10:04:37;16.82;70.71
75368;DHT22;63954;51.948;5.888;2022-10-16T10:07:24;16.90;70.60
75368;DHT22;63954;51.948;5.888;2022-10-16T10:09:59;16.98;69.81
75368;DHT22;63954;51.948;5.888;2022-10-16T10:12:30;17.07;69.51
75368;DHT22;63954;51.948;5.888;2022-10-16T10:15:10;17.10;68.92
75368;DHT22;63954;51.948;5.888;2022-10-16T10:18:15;17.16;69.31
75368;DHT22;63954;51.948;5.888;2022-10-16T10:27:13;17.43;68.33
75368;DHT22;63954;51.948;5.888;2022-10-16T10:30:02;17.47;68.88
75368;DHT22;63954;51.948;5.888;2022-10-16T10:32:56;17.54;68.60
75368;DHT22;63954;51.948;5.888;2022-10-16T10:45:13;17.62;66.85
75368;DHT22;63954;51.948;5.888;2022-10-16T10:51:25;17.63;65.59
75368;DHT22;63954;51.948;5.888;2022-10-16T10:55:19;17.65;65.00
75368;DHT22;63954;51.948;5.888;2022-10-16T10:58:33;17.65;63.28
75368;DHT22;63954;51.948;5.888;2022-10-16T11:02:01;17.64;61.60
75368;DHT22;63954;51.948;5.888;2022-10-16T11:08:28;17.82;62.68
75368;DHT22;63954;51.948;5.888;2022-10-16T11:11:30;17.79;62.92
75368;DHT22;63954;51.948;5.888;2022-10-16T11:14:10;17.82;61.95
75368;DHT22;63954;51.948;5.888;2022-10-16T11:17:23;17.83;61.21
75368;DHT22;63954;51.948;5.888;2022-10-16T11:20:13;17.94;61.85
75368;DHT22;63954;51.948;5.888;2022-10-16T11:23:11;18.00;61.05
75368;DHT22;63954;51.948;5.888;2022-10-16T11:28:53;18.06;61.58
75368;DHT22;63954;51.948;5.888;2022-10-16T11:32:04;18.21;60.77
75368;DHT22;63954;51.948;5.888;2022-10-16T11:35:08;18.28;60.25
75368;DHT22;63954;51.948;5.888;2022-10-16T11:37:55;18.23;59.28
75368;DHT22;63954;51.948;5.888;2022-10-16T11:44:27;18.39;59.78
75368;DHT22;63954;51.948;5.888;2022-10-16T11:47:34;18.50;58.38
75368;DHT22;63954;51.948;5.888;2022-10-16T11:53:13;18.55;59.50
75368;DHT22;63954;51.948;5.888;2022-10-16T12:18:29;18.57;58.00
75368;DHT22;63954;51.948;5.888;2022-10-16T12:27:58;18.27;58.00
75368;DHT22;63954;51.948;5.888;2022-10-16T12:51:44;18.34;57.84
75368;DHT22;63954;51.948;5.888;2022-10-16T12:59:23;18.39;57.56
75368;DHT22;63954;51.948;5.888;2022-10-16T13:06:43;18.29;58.99
75368;DHT22;63954;51.948;5.888;2022-10-16T13:10:36;18.22;59.16
75368;DHT22;63954;51.948;5.888;2022-10-16T13:17:11;18.25;59.64
75368;DHT22;63954;51.948;5.888;2022-10-16T13:24:33;18.17;59.67
75368;DHT22;63954;51.948;5.888;2022-10-16T13:27:55;18.14;58.22
75368;DHT22;63954;51.948;5.888;2022-10-16T14:03:14;18.10;57.88
75368;DHT22;63954;51.948;5.888;2022-10-16T14:05:51;18.06;57.55
75368;DHT22;63954;51.948;5.888;2022-10-16T14:15:15;17.93;58.80
75368;DHT22;63954;51.948;5.888;2022-10-16T14:17:49;17.94;58.80
75368;DHT22;63954;51.948;5.888;2022-10-16T14:20:25;17.98;59.07
75368;DHT22;63954;51.948;5.888;2022-10-16T14:23:00;18.03;59.03
75368;DHT22;63954;51.948;5.888;2022-10-16T14:28:21;18.06;59.43
75368;DHT22;63954;51.948;5.888;2022-10-16T14:30:54;18.07;59.61
75368;DHT22;63954;51.948;5.888;2022-10-16T14:33:56;18.10;59.57
75368;DHT22;63954;51.948;5.888;2022-10-16T14:36:34;18.19;59.60
75368;DHT22;63954;51.948;5.888;2022-10-16T14:44:12;18.53;58.76
75368;DHT22;63954;51.948;5.888;2022-10-16T14:50:29;18.52;57.89
75368;DHT22;63954;51.948;5.888;2022-10-16T14:53:00;18.40;58.99
75368;DHT22;63954;51.948;5.888;2022-10-16T14:55:27;18.27;57.97
75368;DHT22;63954;51.948;5.888;2022-10-16T14:57:54;18.21;59.53
75368;DHT22;63954;51.948;5.888;2022-10-16T15:00:22;18.18;59.32
75368;DHT22;63954;51.948;5.888;2022-10-16T15:02:50;18.19;59.58
75368;DHT22;63954;51.948;5.888;2022-10-16T15:05:20;18.24;59.16
75368;DHT22;63954;51.948;5.888;2022-10-16T15:07:48;18.25;59.22
75368;DHT22;63954;51.948;5.888;2022-10-16T15:10:17;18.25;58.80
75368;DHT22;63954;51.948;5.888;2022-10-16T15:12:45;18.25;59.10
75368;DHT22;63954;51.948;5.888;2022-10-16T15:15:24;18.22;59.49
75368;DHT22;63954;51.948;5.888;2022-10-16T15:17:53;18.17;59.67
75368;DHT22;63954;51.948;5.888;2022-10-16T15:20:23;18.08;60.15
75368;DHT22;63954;51.948;5.888;2022-10-16T15:22:51;18.02;60.21
75368;DHT22;63954;51.948;5.888;2022-10-16T15:25:29;17.93;60.24
75368;DHT22;63954;51.948;5.888;2022-10-16T15:27:58;17.87;60.46
75368;DHT22;63954;51.948;5.888;2022-10-16T15:30:25;17.80;60.93
75368;DHT22;63954;51.948;5.888;2022-10-16T15:32:53;17.73;61.18
75368;DHT22;63954;51.948;5.888;2022-10-16T15:35:21;17.68;61.61
75368;DHT22;63954;51.948;5.888;2022-10-16T15:37:48;17.66;61.67
75368;DHT22;63954;51.948;5.888;2022-10-16T15:40:17;17.64;61.50
75368;DHT22;63954;51.948;5.888;2022-10-16T15:42:46;17.62;61.88
75368;DHT22;63954;51.948;5.888;2022-10-16T15:45:14;17.63;61.82
75368;DHT22;63954;51.948;5.888;2022-10-16T15:47:42;17.65;61.88
75368;DHT22;63954;51.948;5.888;2022-10-16T15:50:10;17.67;61.60
75368;DHT22;63954;51.948;5.888;2022-10-16T15:52:38;17.65;61.77
75368;DHT22;63954;51.948;5.888;2022-10-16T15:55:07;17.65;61.79
75368;DHT22;63954;51.948;5.888;2022-10-16T15:57:34;17.64;61.79
75368;DHT22;63954;51.948;5.888;2022-10-16T16:00:08;17.65;61.84
75368;DHT22;63954;51.948;5.888;2022-10-16T16:02:38;17.64;61.41
75368;DHT22;63954;51.948;5.888;2022-10-16T16:05:09;17.62;61.93
75368;DHT22;63954;51.948;5.888;2022-10-16T16:07:38;17.58;62.59
75368;DHT22;63954;51.948;5.888;2022-10-16T16:10:06;17.52;62.76
75368;DHT22;63954;51.948;5.888;2022-10-16T16:12:34;17.47;62.82
75368;DHT22;63954;51.948;5.888;2022-10-16T16:15:03;17.45;62.89
75368;DHT22;63954;51.948;5.888;2022-10-16T16:17:37;17.40;63.15
75368;DHT22;63954;51.948;5.888;2022-10-16T16:20:13;17.36;62.97
75368;DHT22;63954;51.948;5.888;2022-10-16T16:22:57;17.31;63.56
75368;DHT22;63954;51.948;5.888;2022-10-16T16:25:25;17.28;63.86
75368;DHT22;63954;51.948;5.888;2022-10-16T16:27:53;17.23;64.17
75368;DHT22;63954;51.948;5.888;2022-10-16T16:30:20;17.19;64.47
75368;DHT22;63954;51.948;5.888;2022-10-16T16:32:49;17.16;64.79
75368;DHT22;63954;51.948;5.888;2022-10-16T16:35:17;17.10;65.14
75368;DHT22;63954;51.948;5.888;2022-10-16T16:37:44;17.05;65.30
75368;DHT22;63954;51.948;5.888;2022-10-16T16:40:11;17.02;65.66
75368;DHT22;63954;51.948;5.888;2022-10-16T16:42:39;16.98;66.07
75368;DHT22;63954;51.948;5.888;2022-10-16T16:45:07;16.91;66.41
75368;DHT22;63954;51.948;5.888;2022-10-16T16:47:34;16.87;66.72
75368;DHT22;63954;51.948;5.888;2022-10-16T16:50:04;16.84;66.61
75368;DHT22;63954;51.948;5.888;2022-10-16T16:52:33;16.80;67.01
75368;DHT22;63954;51.948;5.888;2022-10-16T16:55:03;16.74;67.27
75368;DHT22;63954;51.948;5.888;2022-10-16T16:57:30;16.70;67.31
75368;DHT22;63954;51.948;5.888;2022-10-16T16:59:57;16.66;67.47
75368;DHT22;63954;51.948;5.888;2022-10-16T17:02:24;16.63;67.70
75368;DHT22;63954;51.948;5.888;2022-10-16T17:04:52;16.60;67.94
75368;DHT22;63954;51.948;5.888;2022-10-16T17:07:20;16.54;67.89
75368;DHT22;63954;51.948;5.888;2022-10-16T17:09:47;16.46;68.18
75368;DHT22;63954;51.948;5.888;2022-10-16T17:12:15;16.42;67.96
75368;DHT22;63954;51.948;5.888;2022-10-16T17:14:42;16.39;68.08
75368;DHT22;63954;51.948;5.888;2022-10-16T17:17:10;16.35;68.34
75368;DHT22;63954;51.948;5.888;2022-10-16T17:19:37;16.33;68.49
75368;DHT22;63954;51.948;5.888;2022-10-16T17:22:10;16.31;68.53
75368;DHT22;63954;51.948;5.888;2022-10-16T17:24:39;16.30;68.81
75368;DHT22;63954;51.948;5.888;2022-10-16T17:27:08;16.27;68.94
75368;DHT22;63954;51.948;5.888;2022-10-16T17:29:37;16.28;68.93
75368;DHT22;63954;51.948;5.888;2022-10-16T17:32:04;16.29;68.79
75368;DHT22;63954;51.948;5.888;2022-10-16T17:34:31;16.32;68.94
75368;DHT22;63954;51.948;5.888;2022-10-16T17:37:00;16.34;68.89
75368;DHT22;63954;51.948;5.888;2022-10-16T17:39:27;16.39;68.78
75368;DHT22;63954;51.948;5.888;2022-10-16T17:41:56;16.41;68.73
75368;DHT22;63954;51.948;5.888;2022-10-16T17:44:26;16.43;68.68
75368;DHT22;63954;51.948;5.888;2022-10-16T17:46:54;16.43;68.83
75368;DHT22;63954;51.948;5.888;2022-10-16T17:49:21;16.41;69.00
75368;DHT22;63954;51.948;5.888;2022-10-16T17:51:50;16.39;69.16
75368;DHT22;63954;51.948;5.888;2022-10-16T17:54:18;16.35;69.04
75368;DHT22;63954;51.948;5.888;2022-10-16T17:56:45;16.32;69.34
75368;DHT22;63954;51.948;5.888;2022-10-16T17:59:15;16.30;69.41
75368;DHT22;63954;51.948;5.888;2022-10-16T18:01:42;16.25;69.52
75368;DHT22;63954;51.948;5.888;2022-10-16T18:04:12;16.24;69.48
75368;DHT22;63954;51.948;5.888;2022-10-16T18:06:41;16.21;69.49
75368;DHT22;63954;51.948;5.888;2022-10-16T18:09:12;16.20;69.55
75368;DHT22;63954;51.948;5.888;2022-10-16T18:11:40;16.17;69.70
75368;DHT22;63954;51.948;5.888;2022-10-16T18:14:10;16.16;69.92
75368;DHT22;63954;51.948;5.888;2022-10-16T18:16:39;16.14;69.89
75368;DHT22;63954;51.948;5.888;2022-10-16T18:19:08;16.13;69.91
75368;DHT22;63954;51.948;5.888;2022-10-16T18:21:35;16.07;70.19
75368;DHT22;63954;51.948;5.888;2022-10-16T18:24:03;16.08;70.00
75368;DHT22;63954;51.948;5.888;2022-10-16T18:26:30;16.07;69.99
75368;DHT22;63954;51.948;5.888;2022-10-16T18:28:58;16.08;70.10
75368;DHT22;63954;51.948;5.888;2022-10-16T18:31:25;16.07;70.14
75368;DHT22;63954;51.948;5.888;2022-10-16T18:33:54;16.07;70.17
75368;DHT22;63954;51.948;5.888;2022-10-16T18:36:24;16.08;70.21
75368;DHT22;63954;51.948;5.888;2022-10-16T18:38:51;16.08;70.23
75368;DHT22;63954;51.948;5.888;2022-10-16T18:41:19;16.10;70.26
75368;DHT22;63954;51.948;5.888;2022-10-16T18:43:47;16.08;70.52
75368;DHT22;63954;51.948;5.888;2022-10-16T18:46:16;16.10;70.66
75368;DHT22;63954;51.948;5.888;2022-10-16T18:48:44;16.10;70.64
75368;DHT22;63954;51.948;5.888;2022-10-16T18:51:16;16.12;70.73
75368;DHT22;63954;51.948;5.888;2022-10-16T18:53:49;16.13;70.64
75368;DHT22;63954;51.948;5.888;2022-10-16T18:56:18;16.15;70.75
75368;DHT22;63954;51.948;5.888;2022-10-16T18:58:46;16.17;70.64
75368;DHT22;63954;51.948;5.888;2022-10-16T19:01:16;16.19;70.59
75368;DHT22;63954;51.948;5.888;2022-10-16T19:03:45;16.24;70.61
75368;DHT22;63954;51.948;5.888;2022-10-16T19:06:15;16.25;70.71
75368;DHT22;63954;51.948;5.888;2022-10-16T19:08:43;16.27;70.84
75368;DHT22;63954;51.948;5.888;2022-10-16T19:11:11;16.29;70.80
75368;DHT22;63954;51.948;5.888;2022-10-16T19:13:43;16.28;70.88
75368;DHT22;63954;51.948;5.888;2022-10-16T19:16:11;16.27;70.93
75368;DHT22;63954;51.948;5.888;2022-10-16T19:18:39;16.26;70.97
75368;DHT22;63954;51.948;5.888;2022-10-16T19:21:08;16.25;71.05
75368;DHT22;63954;51.948;5.888;2022-10-16T19:23:39;16.27;71.11
75368;DHT22;63954;51.948;5.888;2022-10-16T19:26:08;16.28;71.10
75368;DHT22;63954;51.948;5.888;2022-10-16T19:28:36;16.26;71.26
75368;DHT22;63954;51.948;5.888;2022-10-16T19:31:05;16.24;71.45
75368;DHT22;63954;51.948;5.888;2022-10-16T19:33:33;16.20;71.96
75368;DHT22;63954;51.948;5.888;2022-10-16T19:36:08;16.16;72.48
75368;DHT22;63954;51.948;5.888;2022-10-16T19:38:38;16.11;72.93
75368;DHT22;63954;51.948;5.888;2022-10-16T19:41:07;16.05;72.93
75368;DHT22;63954;51.948;5.888;2022-10-16T19:43:35;16.02;73.14
75368;DHT22;63954;51.948;5.888;2022-10-16T19:46:04;15.99;73.26
75368;DHT22;63954;51.948;5.888;2022-10-16T19:48:31;15.96;73.38
75368;DHT22;63954;51.948;5.888;2022-10-16T19:50:59;15.95;73.42
75368;DHT22;63954;51.948;5.888;2022-10-16T19:53:26;15.97;73.33
75368;DHT22;63954;51.948;5.888;2022-10-16T19:55:56;15.96;73.28
75368;DHT22;63954;51.948;5.888;2022-10-16T19:58:24;15.98;73.43
75368;DHT22;63954;51.948;5.888;2022-10-16T20:00:51;15.99;73.52
75368;DHT22;63954;51.948;5.888;2022-10-16T20:03:19;15.97;73.45
75368;DHT22;63954;51.948;5.888;2022-10-16T20:05:50;15.98;73.41
75368;DHT22;63954;51.948;5.888;2022-10-16T20:08:18;16.00;73.38
75368;DHT22;63954;51.948;5.888;2022-10-16T20:10:52;16.02;73.25